Time;durP1;ratioP1;P1;durP2;ratioP2;P2;SDS_P1;SDS_P2;PMS_P1;PMS_P2;Temp;Humidity;BMP_temperature;BMP_pressure;BME280_temperature;BME280_humidity;BME280_pressure;Samples;Min_cycle;Max_cycle;Signal;HPM_P1;HPM_P2
2023/01/16 00:00:30;;;;;;;1.00;0.90;;;;;;;;;;4962622;28;20051;-75
2023/01/16 00:03:16;;;;;;;1.25;1.02;;;;;;;;;;4959920;28;20481;-71
2023/01/16 00:05:42;;;;;;;1.25;1.00;;;;;;;;;;4960114;28;20420;-65
2023/01/16 00:08:08;;;;;;;1.30;1.00;;;;;;;;;;4964850;28;20047;-77
2023/01/16 00:11:24;;;;;;;1.23;1.10;;;;;;;;;;4968516;28;20449;-65
2023/01/16 00:13:50;;;;;;;1.52;1.10;;;;;;;;;;4964117;28;20050;-70
2023/01/16 00:16:18;;;;;;;1.27;1.00;;;;;;;;;;4964464;28;20141;-68
2023/01/16 00:18:44;;;;;;;1.20;0.95;;;;;;;;;;4964273;28;20100;-67
2023/01/16 00:21:10;;;;;;;1.10;1.00;;;;;;;;;;4968727;28;20038;-72
2023/01/16 00:23:36;;;;;;;1.83;1.17;;;;;;;;;;4966563;28;20157;-66
2023/01/16 00:26:08;;;;;;;1.75;1.10;;;;;;;;;;4966514;28;20055;-69
2023/01/16 00:28:33;;;;;;;1.02;0.95;;;;;;;;;;4962115;28;20488;-67
2023/01/16 00:31:00;;;;;;;1.30;0.90;;;;;;;;;;4958447;28;20093;-78
2023/01/16 00:33:25;;;;;;;1.63;1.00;;;;;;;;;;4961151;28;20161;-65
2023/01/16 00:35:51;;;;;;;1.10;0.88;;;;;;;;;;4965930;28;20564;-64
2023/01/16 00:38:17;;;;;;;1.40;1.00;;;;;;;;;;4961158;28;20070;-65
2023/01/16 00:40:44;;;;;;;5.45;0.90;;;;;;;;;;4959535;28;20137;-65
2023/01/16 00:43:09;;;;;;;1.52;1.10;;;;;;;;;;4956336;28;20137;-68
2023/01/16 00:45:35;;;;;;;1.15;0.90;;;;;;;;;;4965604;28;20043;-70
2023/01/16 00:48:01;;;;;;;2.33;1.30;;;;;;;;;;4969326;28;20039;-64
2023/01/16 00:50:28;;;;;;;1.20;1.00;;;;;;;;;;4971118;28;20130;-69
2023/01/16 00:52:53;;;;;;;1.05;0.85;;;;;;;;;;4969698;28;20129;-65
2023/01/16 00:55:19;;;;;;;1.75;0.98;;;;;;;;;;4968862;28;20046;-75
2023/01/16 00:57:45;;;;;;;1.17;0.93;;;;;;;;;;4970188;28;20066;-64
2023/01/16 01:00:11;;;;;;;0.95;0.90;;;;;;;;;;4966861;28;20390;-65
2023/01/16 01:02:37;;;;;;;4.00;1.20;;;;;;;;;;4955457;28;20133;-69
2023/01/16 01:05:06;;;;;;;1.48;1.05;;;;;;;;;;4963634;28;20047;-68
2023/01/16 01:07:32;;;;;;;2.53;1.00;;;;;;;;;;4957915;28;20043;-65
2023/01/16 01:09:58;;;;;;;1.10;1.00;;;;;;;;;;4960604;28;20043;-65
2023/01/16 01:12:24;;;;;;;2.95;1.10;;;;;;;;;;4960925;28;20035;-71
2023/01/16 01:14:50;;;;;;;1.50;1.00;;;;;;;;;;4958852;28;20121;-65
2023/01/16 01:17:16;;;;;;;1.58;1.20;;;;;;;;;;4956813;28;20058;-65
2023/01/16 01:19:42;;;;;;;3.85;1.55;;;;;;;;;;4958835;28;20283;-75
2023/01/16 01:22:08;;;;;;;2.33;1.00;;;;;;;;;;4960960;28;20054;-67
2023/01/16 01:24:34;;;;;;;2.67;1.30;;;;;;;;;;4958149;28;20087;-66
2023/01/16 01:26:59;;;;;;;2.08;1.10;;;;;;;;;;4960610;28;20051;-70
2023/01/16 01:29:26;;;;;;;1.35;1.08;;;;;;;;;;4961848;28;20047;-76
2023/01/16 01:31:51;;;;;;;2.00;1.00;;;;;;;;;;4953325;28;20381;-75
2023/01/16 01:34:17;;;;;;;2.25;0.98;;;;;;;;;;4955079;28;20057;-71
2023/01/16 01:36:43;;;;;;;2.13;0.90;;;;;;;;;;4967481;28;20079;-66
2023/01/16 01:39:10;;;;;;;1.77;0.82;;;;;;;;;;4963155;28;20066;-66
2023/01/16 01:41:36;;;;;;;1.30;0.95;;;;;;;;;;4957394;28;20039;-73
2023/01/16 01:44:02;;;;;;;1.92;0.82;;;;;;;;;;4964098;28;20392;-71
2023/01/16 01:46:43;;;;;;;1.30;0.80;;;;;;;;;;4961116;28;20047;-69
2023/01/16 01:49:29;;;;;;;0.95;0.80;;;;;;;;;;4957499;28;20062;-72
2023/01/16 01:51:59;;;;;;;0.95;0.80;;;;;;;;;;4954384;28;20047;-77
2023/01/16 01:54:31;;;;;;;0.98;0.80;;;;;;;;;;4952269;28;20450;-73
2023/01/16 01:57:06;;;;;;;0.68;0.68;;;;;;;;;;4957913;28;20061;-73
2023/01/16 01:59:37;;;;;;;1.17;0.85;;;;;;;;;;4959549;28;20047;-77
2023/01/16 02:02:06;;;;;;;0.80;0.80;;;;;;;;;;4954220;28;20070;-65
2023/01/16 02:04:41;;;;;;;0.93;0.85;;;;;;;;;;4960477;28;20741;-65
2023/01/16 02:07:09;;;;;;;2.17;1.00;;;;;;;;;;4959446;28;20133;-64
2023/01/16 02:09:36;;;;;;;1.35;0.85;;;;;;;;;;4959731;28;20043;-73
2023/01/16 02:12:13;;;;;;;0.65;0.60;;;;;;;;;;4956384;28;20053;-72
2023/01/16 02:14:42;;;;;;;1.33;0.90;;;;;;;;;;4958887;28;20711;-70
2023/01/16 02:20:09;;;;;;;1.52;1.10;;;;;;;;;;4952944;28;20441;-76
2023/01/16 02:22:53;;;;;;;0.93;0.90;;;;;;;;;;4957599;28;20465;-73
2023/01/16 02:25:40;;;;;;;1.23;1.03;;;;;;;;;;4954852;28;20134;-73
2023/01/16 02:28:44;;;;;;;1.15;1.05;;;;;;;;;;4960843;28;20930;-70
2023/01/16 02:31:42;;;;;;;1.15;0.90;;;;;;;;;;4955346;28;20062;-75
2023/01/16 02:34:14;;;;;;;2.00;1.20;;;;;;;;;;4936432;28;20046;-72
2023/01/16 02:37:10;;;;;;;1.20;1.10;;;;;;;;;;4959146;28;20058;-64
2023/01/16 02:39:56;;;;;;;1.38;1.00;;;;;;;;;;4956774;28;20050;-73
2023/01/16 02:42:41;;;;;;;1.25;1.00;;;;;;;;;;4956580;28;20134;-65
2023/01/16 02:45:25;;;;;;;1.30;1.10;;;;;;;;;;4956803;28;20042;-69
2023/01/16 02:47:57;;;;;;;1.20;0.98;;;;;;;;;;4958237;28;20129;-72
2023/01/16 02:50:34;;;;;;;1.63;1.08;;;;;;;;;;4958057;28;20070;-71
2023/01/16 02:53:24;;;;;;;1.95;1.30;;;;;;;;;;4957154;28;20055;-73
2023/01/16 02:56:08;;;;;;;1.40;1.20;;;;;;;;;;4957894;28;20145;-67
2023/01/16 02:58:40;;;;;;;2.38;1.50;;;;;;;;;;4952553;28;20579;-75
2023/01/16 03:01:07;;;;;;;1.50;1.08;;;;;;;;;;4956053;28;20546;-73
2023/01/16 03:03:46;;;;;;;2.35;1.00;;;;;;;;;;4958302;28;20050;-65
2023/01/16 03:06:18;;;;;;;2.80;1.20;;;;;;;;;;4953881;28;20047;-65
2023/01/16 03:09:19;;;;;;;2.15;1.23;;;;;;;;;;4958708;28;20469;-69
2023/01/16 03:12:26;;;;;;;2.42;1.00;;;;;;;;;;4935880;28;20058;-66
2023/01/16 03:15:04;;;;;;;1.15;0.95;;;;;;;;;;4954685;28;20055;-64
2023/01/16 03:17:39;;;;;;;0.80;0.80;;;;;;;;;;4955914;28;20384;-82
2023/01/16 03:20:45;;;;;;;0.82;0.80;;;;;;;;;;4950534;28;20074;-70
2023/01/16 03:23:51;;;;;;;1.30;0.93;;;;;;;;;;4903826;29;20044;-76
2023/01/16 03:26:49;;;;;;;1.58;1.02;;;;;;;;;;4904337;29;20056;-68
2023/01/16 03:29:23;;;;;;;1.48;1.00;;;;;;;;;;4911732;29;20485;-67
2023/01/16 03:31:57;;;;;;;1.92;0.82;;;;;;;;;;4911074;29;20527;-67
2023/01/16 03:34:35;;;;;;;2.33;1.13;;;;;;;;;;4909060;29;20145;-70
2023/01/16 03:37:25;;;;;;;1.80;0.90;;;;;;;;;;4909683;29;20792;-64
2023/01/16 03:39:57;;;;;;;1.25;0.80;;;;;;;;;;4907133;29;20134;-67
2023/01/16 03:42:41;;;;;;;2.28;0.75;;;;;;;;;;4901195;29;20111;-82
2023/01/16 03:45:21;;;;;;;1.13;0.90;;;;;;;;;;4901596;29;20139;-65
2023/01/16 03:47:56;;;;;;;1.73;0.90;;;;;;;;;;4903006;29;20056;-67
2023/01/16 03:50:25;;;;;;;0.85;0.80;;;;;;;;;;4901011;29;20055;-76
2023/01/16 03:52:56;;;;;;;0.95;0.80;;;;;;;;;;4904800;29;20060;-71
2023/01/16 03:55:46;;;;;;;1.10;0.80;;;;;;;;;;4906216;29;20071;-71
2023/01/16 03:58:36;;;;;;;0.93;0.80;;;;;;;;;;4911264;29;20052;-65
2023/01/16 04:01:05;;;;;;;1.80;0.70;;;;;;;;;;4959862;28;20424;-66
2023/01/16 04:03:47;;;;;;;1.00;0.90;;;;;;;;;;4964001;28;20043;-66
2023/01/16 04:06:19;;;;;;;2.53;1.10;;;;;;;;;;4961515;28;20050;-64
2023/01/16 04:08:47;;;;;;;1.42;0.90;;;;;;;;;;4954415;28;20039;-79
2023/01/16 04:11:17;;;;;;;0.80;0.80;;;;;;;;;;4960779;28;20429;-67
2023/01/16 04:13:46;;;;;;;1.20;0.73;;;;;;;;;;4956672;28;20409;-66
2023/01/16 04:16:14;;;;;;;1.30;0.90;;;;;;;;;;4956438;28;20055;-66
2023/01/16 04:18:41;;;;;;;1.25;0.60;;;;;;;;;;4956773;28;20046;-65
2023/01/16 04:21:07;;;;;;;0.60;0.60;;;;;;;;;;4958353;28;20146;-64
2023/01/16 04:23:35;;;;;;;2.03;0.63;;;;;;;;;;4959734;28;20427;-72
2023/01/16 04:26:01;;;;;;;2.25;0.70;;;;;;;;;;4959057;28;20050;-67
2023/01/16 04:28:27;;;;;;;1.23;0.80;;;;;;;;;;4962835;28;20501;-68
2023/01/16 04:30:52;;;;;;;1.20;0.90;;;;;;;;;;4963428;28;20125;-73
2023/01/16 04:33:18;;;;;;;1.15;0.82;;;;;;;;;;4964071;28;20113;-71
2023/01/16 04:35:44;;;;;;;4.05;0.90;;;;;;;;;;4958457;28;20063;-67
2023/01/16 04:38:12;;;;;;;2.10;0.77;;;;;;;;;;4958134;28;20051;-81
2023/01/16 04:40:38;;;;;;;1.48;0.82;;;;;;;;;;4959196;28;20073;-63
2023/01/16 04:43:04;;;;;;;1.73;0.70;;;;;;;;;;4961574;28;20051;-68
2023/01/16 04:45:30;;;;;;;1.95;0.90;;;;;;;;;;4957372;28;20062;-73
2023/01/16 04:47:56;;;;;;;3.45;1.02;;;;;;;;;;4960764;28;20051;-70
2023/01/16 04:50:22;;;;;;;1.65;0.80;;;;;;;;;;4959098;28;20073;-64
2023/01/16 04:52:48;;;;;;;1.58;0.90;;;;;;;;;;4961696;28;20051;-64
2023/01/16 04:55:14;;;;;;;2.33;0.90;;;;;;;;;;4958887;28;20491;-76
2023/01/16 04:57:40;;;;;;;2.80;0.80;;;;;;;;;;4963244;28;20055;-70
2023/01/16 05:00:08;;;;;;;3.67;0.80;;;;;;;;;;4957824;28;21505;-67
2023/01/16 05:02:34;;;;;;;1.92;0.70;;;;;;;;;;4958372;28;20453;-65
2023/01/16 05:05:00;;;;;;;3.85;1.00;;;;;;;;;;4959877;28;20074;-67
2023/01/16 05:07:29;;;;;;;3.92;0.82;;;;;;;;;;4961892;28;20051;-69
2023/01/16 05:09:55;;;;;;;1.77;0.82;;;;;;;;;;4958062;28;20543;-76
2023/01/16 05:12:21;;;;;;;1.40;0.70;;;;;;;;;;4958677;28;20388;-73
2023/01/16 05:14:47;;;;;;;2.28;0.60;;;;;;;;;;4958377;28;20046;-76
2023/01/16 05:17:13;;;;;;;2.10;0.90;;;;;;;;;;4959483;28;20424;-66
2023/01/16 05:19:39;;;;;;;1.25;0.75;;;;;;;;;;4959736;28;20040;-76
2023/01/16 05:22:05;;;;;;;6.10;0.88;;;;;;;;;;4959032;28;20125;-80
2023/01/16 05:24:31;;;;;;;2.10;0.90;;;;;;;;;;4963066;28;20083;-72
2023/01/16 05:26:57;;;;;;;1.23;0.80;;;;;;;;;;4958359;28;20057;-75
2023/01/16 05:29:23;;;;;;;1.63;0.80;;;;;;;;;;4956467;28;20043;-67
2023/01/16 05:31:49;;;;;;;1.73;0.80;;;;;;;;;;4960568;28;20465;-73
2023/01/16 05:34:14;;;;;;;1.08;0.70;;;;;;;;;;4955266;28;20515;-68
2023/01/16 05:36:41;;;;;;;3.50;1.20;;;;;;;;;;4957075;28;20118;-67
2023/01/16 05:39:06;;;;;;;3.97;0.90;;;;;;;;;;4963124;28;20051;-66
2023/01/16 05:41:33;;;;;;;5.03;0.80;;;;;;;;;;4960287;28;20051;-65
2023/01/16 05:43:58;;;;;;;3.10;0.95;;;;;;;;;;4960497;28;20069;-67
2023/01/16 05:46:25;;;;;;;4.13;0.80;;;;;;;;;;4958665;28;20169;-70
2023/01/16 05:48:50;;;;;;;2.22;1.00;;;;;;;;;;4955706;28;20846;-69
2023/01/16 05:51:16;;;;;;;5.43;1.25;;;;;;;;;;4957490;28;20516;-69
2023/01/16 05:53:42;;;;;;;1.67;0.90;;;;;;;;;;4956465;28;20055;-67
2023/01/16 05:56:10;;;;;;;2.97;1.27;;;;;;;;;;4959807;28;20413;-69
2023/01/16 05:58:37;;;;;;;2.25;0.85;;;;;;;;;;4960918;28;20839;-67
2023/01/16 06:01:03;;;;;;;2.10;0.82;;;;;;;;;;4956956;28;20047;-68
2023/01/16 06:03:29;;;;;;;5.45;1.50;;;;;;;;;;4955983;28;20097;-67
2023/01/16 06:05:55;;;;;;;3.63;1.15;;;;;;;;;;4956229;28;20062;-68
2023/01/16 06:08:21;;;;;;;3.33;1.00;;;;;;;;;;4957338;28;20043;-65
2023/01/16 06:10:47;;;;;;;3.70;1.20;;;;;;;;;;4954012;28;20754;-71
2023/01/16 06:13:13;;;;;;;3.42;1.00;;;;;;;;;;4962560;28;20466;-65
2023/01/16 06:15:41;;;;;;;9.43;1.25;;;;;;;;;;4951084;28;20078;-67
2023/01/16 06:18:07;;;;;;;5.30;1.20;;;;;;;;;;4952685;28;20059;-72
2023/01/16 06:20:33;;;;;;;9.80;1.23;;;;;;;;;;4953830;28;20077;-74
2023/01/16 06:22:59;;;;;;;3.35;1.33;;;;;;;;;;4956523;28;20434;-75
2023/01/16 06:25:25;;;;;;;7.75;1.45;;;;;;;;;;4957849;28;20105;-67
2023/01/16 06:27:51;;;;;;;7.70;1.20;;;;;;;;;;4964023;28;20039;-74
2023/01/16 06:30:18;;;;;;;4.30;1.35;;;;;;;;;;4950997;28;20055;-75
2023/01/16 06:32:49;;;;;;;5.47;1.30;;;;;;;;;;4955113;28;20047;-67
2023/01/16 06:35:15;;;;;;;3.65;1.52;;;;;;;;;;4959108;28;20066;-71
2023/01/16 06:37:41;;;;;;;4.35;1.50;;;;;;;;;;4952214;28;20063;-69
2023/01/16 06:40:08;;;;;;;3.97;1.50;;;;;;;;;;4958513;28;20125;-68
2023/01/16 06:42:33;;;;;;;11.40;1.60;;;;;;;;;;4958631;28;20473;-71
2023/01/16 06:45:00;;;;;;;2.75;1.17;;;;;;;;;;4956665;28;20133;-75
2023/01/16 06:47:27;;;;;;;9.35;3.08;;;;;;;;;;4951893;28;20465;-71
2023/01/16 06:49:53;;;;;;;9.18;1.15;;;;;;;;;;4965136;28;20118;-67
2023/01/16 06:52:19;;;;;;;4.47;1.35;;;;;;;;;;4950847;28;20130;-75
2023/01/16 06:54:45;;;;;;;7.60;1.60;;;;;;;;;;4956120;28;20058;-74
2023/01/16 06:57:11;;;;;;;6.85;1.40;;;;;;;;;;4965340;28;20047;-69
2023/01/16 06:59:37;;;;;;;3.60;1.13;;;;;;;;;;4958320;28;20070;-66
2023/01/16 07:02:03;;;;;;;7.57;1.67;;;;;;;;;;4955668;28;20141;-74
2023/01/16 07:04:29;;;;;;;1.83;1.10;;;;;;;;;;4960522;28;20062;-73
2023/01/16 07:06:55;;;;;;;10.25;1.30;;;;;;;;;;4957987;28;20055;-73
2023/01/16 07:09:28;;;;;;;2.78;1.10;;;;;;;;;;4959468;28;20072;-65
2023/01/16 07:11:54;;;;;;;3.50;1.30;;;;;;;;;;4958672;28;20064;-70
2023/01/16 07:22:40;;;;;;;7.28;1.63;;;;;;;;;;4959491;28;20066;-66
2023/01/16 07:25:12;;;;;;;4.85;1.60;;;;;;;;;;4955882;28;20401;-65
2023/01/16 07:27:39;;;;;;;8.18;1.65;;;;;;;;;;4952223;28;20043;-76
2023/01/16 07:30:06;;;;;;;5.68;1.48;;;;;;;;;;4966085;28;20043;-70
2023/01/16 07:32:32;;;;;;;5.30;1.48;;;;;;;;;;4955002;28;20077;-75
2023/01/16 07:34:58;;;;;;;5.88;1.40;;;;;;;;;;4959879;28;20047;-68
2023/01/16 07:37:24;;;;;;;2.10;1.23;;;;;;;;;;4965765;28;20055;-66
2023/01/16 07:39:50;;;;;;;2.58;1.38;;;;;;;;;;4953611;28;20074;-73
2023/01/16 07:42:16;;;;;;;2.17;1.17;;;;;;;;;;4959217;28;20489;-74
2023/01/16 07:44:42;;;;;;;7.50;1.58;;;;;;;;;;4951039;28;20046;-74
2023/01/16 07:47:08;;;;;;;5.65;2.20;;;;;;;;;;4952070;28;20047;-77
2023/01/16 07:49:34;;;;;;;8.50;1.60;;;;;;;;;;4952809;28;20359;-70
2023/01/16 07:51:59;;;;;;;4.65;1.60;;;;;;;;;;4954838;28;20047;-71
2023/01/16 07:54:25;;;;;;;5.82;1.58;;;;;;;;;;4958572;28;21689;-75
2023/01/16 07:56:51;;;;;;;8.43;1.73;;;;;;;;;;4959849;28;20513;-72
2023/01/16 07:59:17;;;;;;;4.35;1.30;;;;;;;;;;4959404;28;20050;-74
2023/01/16 08:01:45;;;;;;;6.90;1.35;;;;;;;;;;4956404;28;20404;-65
2023/01/16 08:04:11;;;;;;;12.93;2.47;;;;;;;;;;4956978;28;20190;-73
2023/01/16 08:06:37;;;;;;;9.75;1.50;;;;;;;;;;4963166;28;20063;-76
2023/01/16 08:09:03;;;;;;;3.15;1.17;;;;;;;;;;4951400;28;20051;-68
2023/01/16 08:11:35;;;;;;;6.38;1.88;;;;;;;;;;4952160;28;20106;-82
2023/01/16 08:14:06;;;;;;;2.58;1.20;;;;;;;;;;4958035;28;20126;-76
2023/01/16 08:16:33;;;;;;;8.18;1.50;;;;;;;;;;4959482;28;20055;-77
2023/01/16 08:18:59;;;;;;;4.78;1.40;;;;;;;;;;4963613;28;20066;-75
2023/01/16 08:21:25;;;;;;;7.85;1.58;;;;;;;;;;4959566;28;20484;-74
2023/01/16 08:23:51;;;;;;;4.40;1.42;;;;;;;;;;4954063;28;20109;-66
2023/01/16 08:26:17;;;;;;;3.08;1.58;;;;;;;;;;4955456;28;20446;-77
2023/01/16 08:28:43;;;;;;;8.77;1.42;;;;;;;;;;4970718;28;20393;-67
2023/01/16 08:31:13;;;;;;;5.75;1.48;;;;;;;;;;4955401;28;20043;-69
2023/01/16 08:33:40;;;;;;;7.95;1.30;;;;;;;;;;4955379;28;20062;-68
2023/01/16 08:36:09;;;;;;;3.60;1.27;;;;;;;;;;4961519;28;20102;-74
2023/01/16 08:38:35;;;;;;;10.02;1.20;;;;;;;;;;4955482;28;20055;-68
2023/01/16 08:41:01;;;;;;;4.68;1.40;;;;;;;;;;4959267;28;20060;-84
2023/01/16 08:51:57;;;;;;;4.18;1.15;;;;;;;;;;4961711;28;20060;-74
2023/01/16 08:54:23;;;;;;;4.15;1.15;;;;;;;;;;4963763;28;20487;-76
2023/01/16 08:56:49;;;;;;;6.60;1.30;;;;;;;;;;4957428;28;20043;-76
2023/01/16 08:59:15;;;;;;;3.22;1.80;;;;;;;;;;4954362;28;20504;-69
2023/01/16 09:01:41;;;;;;;4.55;1.20;;;;;;;;;;4956034;28;20047;-65
2023/01/16 09:04:08;;;;;;;4.55;1.10;;;;;;;;;;4955643;28;20054;-68
2023/01/16 09:06:35;;;;;;;6.88;1.40;;;;;;;;;;4957119;28;20097;-65
2023/01/16 09:09:06;;;;;;;1.83;1.00;;;;;;;;;;4965069;28;20043;-74
2023/01/16 09:14:30;;;;;;;1.25;0.93;;;;;;;;;;4925559;29;20044;-67
2023/01/16 09:16:56;;;;;;;3.00;1.20;;;;;;;;;;4921147;29;20055;-69
2023/01/16 09:19:22;;;;;;;7.28;1.33;;;;;;;;;;4910420;29;20130;-71
2023/01/16 09:21:48;;;;;;;2.90;1.20;;;;;;;;;;4927154;29;20040;-66
2023/01/16 09:24:14;;;;;;;5.18;1.60;;;;;;;;;;4925209;29;20051;-69
2023/01/16 09:26:39;;;;;;;2.63;1.08;;;;;;;;;;4922850;29;20064;-70
2023/01/16 09:29:06;;;;;;;2.85;1.48;;;;;;;;;;4926000;29;20078;-76
2023/01/16 09:31:32;;;;;;;5.25;1.55;;;;;;;;;;4925490;29;20044;-66
2023/01/16 09:33:58;;;;;;;5.07;1.08;;;;;;;;;;4926010;29;20066;-70
2023/01/16 09:36:24;;;;;;;7.03;1.27;;;;;;;;;;4924728;29;20063;-68
2023/01/16 09:38:50;;;;;;;1.95;1.00;;;;;;;;;;4924551;29;20098;-68
2023/01/16 09:44:10;;;;;;;4.50;1.27;;;;;;;;;;4922146;29;20066;-70
2023/01/16 09:46:40;;;;;;;4.53;1.23;;;;;;;;;;4922974;29;20039;-70
2023/01/16 09:49:15;;;;;;;1.95;1.10;;;;;;;;;;4922812;29;20066;-71
2023/01/16 09:58:35;;;;;;;3.83;0.90;;;;;;;;;;4949607;28;20055;-67
2023/01/16 10:00:16;;;;;;;2.53;0.85;;;;;;;;;;4955792;28;20051;-66
2023/01/16 10:02:43;;;;;;;4.80;1.00;;;;;;;;;;4952845;28;20106;-67
2023/01/16 10:05:11;;;;;;;2.03;0.98;;;;;;;;;;4964789;28;20043;-66
2023/01/16 10:07:56;;;;;;;5.15;1.30;;;;;;;;;;4969631;28;20079;-68
2023/01/16 10:10:45;;;;;;;4.78;1.15;;;;;;;;;;4962716;28;20054;-67
2023/01/16 10:13:17;;;;;;;4.05;1.15;;;;;;;;;;4970742;28;20098;-67
2023/01/16 10:16:23;;;;;;;5.80;1.15;;;;;;;;;;4959793;28;20363;-71
2023/01/16 10:18:58;;;;;;;12.55;1.77;;;;;;;;;;4953581;28;20494;-66
2023/01/16 10:21:48;;;;;;;6.47;1.17;;;;;;;;;;4964527;28;20730;-79
2023/01/16 10:24:17;;;;;;;5.45;1.40;;;;;;;;;;4959375;28;20145;-74
2023/01/16 10:27:00;;;;;;;3.53;1.30;;;;;;;;;;4964819;28;20055;-67
2023/01/16 10:29:33;;;;;;;2.33;1.52;;;;;;;;;;4961528;28;20066;-68
2023/01/16 10:32:14;;;;;;;5.00;1.05;;;;;;;;;;4962091;28;20043;-69
2023/01/16 10:34:47;;;;;;;7.35;1.00;;;;;;;;;;4956432;28;20073;-68
2023/01/16 10:37:14;;;;;;;6.33;1.00;;;;;;;;;;4963993;28;20063;-68
2023/01/16 10:39:40;;;;;;;8.82;1.60;;;;;;;;;;4956396;28;20315;-70
2023/01/16 10:50:42;;;;;;;6.05;1.40;;;;;;;;;;4954900;28;20448;-70
2023/01/16 10:53:10;;;;;;;3.58;1.20;;;;;;;;;;4958643;28;20893;-77
2023/01/16 10:55:39;;;;;;;4.63;1.35;;;;;;;;;;4957803;28;20062;-68
2023/01/16 10:58:22;;;;;;;5.03;1.30;;;;;;;;;;4956457;28;20050;-67
2023/01/16 11:00:49;;;;;;;7.50;1.38;;;;;;;;;;4958698;28;20047;-80
2023/01/16 11:03:37;;;;;;;3.80;1.05;;;;;;;;;;4954380;28;21824;-73
2023/01/16 11:06:17;;;;;;;3.58;1.52;;;;;;;;;;4959057;28;20444;-69
2023/01/16 11:08:48;;;;;;;7.70;1.33;;;;;;;;;;4955417;28;20050;-82
2023/01/16 11:20:25;;;;;;;6.60;1.20;;;;;;;;;;4955028;28;20047;-70
2023/01/16 11:23:18;;;;;;;6.97;1.35;;;;;;;;;;4960584;28;20039;-68
2023/01/16 11:25:47;;;;;;;9.35;1.30;;;;;;;;;;4954973;28;20047;-71
2023/01/16 11:28:19;;;;;;;9.63;1.40;;;;;;;;;;4963251;28;20043;-65
2023/01/16 11:30:47;;;;;;;7.10;1.15;;;;;;;;;;4960105;28;20540;-69
2023/01/16 11:33:21;;;;;;;10.63;1.20;;;;;;;;;;4964579;28;20051;-65
2023/01/16 11:35:55;;;;;;;4.82;1.10;;;;;;;;;;4965117;28;20063;-72
2023/01/16 11:38:26;;;;;;;2.92;1.00;;;;;;;;;;4969443;28;20141;-64
2023/01/16 11:40:56;;;;;;;6.38;1.10;;;;;;;;;;4956573;28;20436;-69
2023/01/16 11:46:27;;;;;;;5.47;1.30;;;;;;;;;;4962290;28;20046;-72
2023/01/16 11:48:58;;;;;;;2.92;0.95;;;;;;;;;;4965501;28;20646;-81
2023/01/16 11:51:29;;;;;;;3.60;0.95;;;;;;;;;;4961424;28;20129;-78
2023/01/16 11:53:57;;;;;;;4.90;1.10;;;;;;;;;;4960750;28;20138;-68
2023/01/16 11:56:39;;;;;;;3.47;1.02;;;;;;;;;;4962951;28;20121;-81
2023/01/16 11:59:19;;;;;;;6.93;1.65;;;;;;;;;;4961211;28;20059;-79
2023/01/16 12:04:35;;;;;;;8.88;2.92;;;;;;;;;;4961914;28;20555;-68
2023/01/16 12:07:23;;;;;;;4.65;1.00;;;;;;;;;;4963150;28;20071;-77
2023/01/16 12:10:43;;;;;;;6.65;1.58;;;;;;;;;;4959128;28;20720;-78
2023/01/16 12:16:01;;;;;;;17.80;1.15;;;;;;;;;;4907216;29;20059;-74
2023/01/16 12:18:57;;;;;;;3.40;1.02;;;;;;;;;;4913267;29;20064;-69
2023/01/16 12:21:41;;;;;;;15.82;1.63;;;;;;;;;;4911552;29;20139;-67
2023/01/16 12:24:09;;;;;;;4.93;1.52;;;;;;;;;;4912151;29;20091;-76
2023/01/16 12:26:56;;;;;;;5.30;0.95;;;;;;;;;;4910840;29;20127;-69
2023/01/16 12:30:10;;;;;;;13.77;1.42;;;;;;;;;;4898637;29;20052;-69
2023/01/16 12:32:58;;;;;;;11.07;1.20;;;;;;;;;;4904559;29;20096;-72
2023/01/16 12:35:53;;;;;;;6.95;1.00;;;;;;;;;;4913915;29;20455;-75
2023/01/16 12:38:32;;;;;;;5.47;1.17;;;;;;;;;;4908102;29;20048;-71
2023/01/16 12:44:44;;;;;;;10.43;1.27;;;;;;;;;;4870670;29;20221;-68
2023/01/16 12:47:37;;;;;;;2.75;1.10;;;;;;;;;;4874133;29;20137;-66
2023/01/16 12:50:30;;;;;;;13.18;1.08;;;;;;;;;;4900492;29;20093;-74
2023/01/16 12:53:49;;;;;;;9.38;1.10;;;;;;;;;;4879255;29;20097;-69
2023/01/16 12:56:42;;;;;;;6.25;1.20;;;;;;;;;;4854420;29;20133;-77
2023/01/16 12:59:26;;;;;;;4.35;1.50;;;;;;;;;;4884603;29;20139;-74
2023/01/16 13:02:15;;;;;;;11.02;1.40;;;;;;;;;;4879778;29;20080;-65
2023/01/16 13:04:59;;;;;;;12.38;1.45;;;;;;;;;;4886803;29;20139;-78
2023/01/16 13:07:31;;;;;;;2.20;0.77;;;;;;;;;;4884193;29;20052;-71
2023/01/16 13:15:40;;;;;;;7.45;1.08;;;;;;;;;;4886834;29;20052;-66
2023/01/16 13:18:26;;;;;;;13.60;1.58;;;;;;;;;;4884283;29;20068;-69
2023/01/16 13:20:57;;;;;;;11.65;1.25;;;;;;;;;;4955456;28;20057;-73
2023/01/16 13:24:00;;;;;;;12.30;2.03;;;;;;;;;;4957101;28;20147;-72
2023/01/16 13:26:29;;;;;;;7.80;1.63;;;;;;;;;;4946067;28;20151;-77
2023/01/16 13:28:57;;;;;;;12.52;1.30;;;;;;;;;;4956358;28;20047;-73
2023/01/16 13:31:29;;;;;;;18.27;1.70;;;;;;;;;;4963424;28;20046;-75
2023/01/16 13:34:10;;;;;;;12.32;1.40;;;;;;;;;;4954519;28;20051;-68
2023/01/16 13:36:48;;;;;;;10.65;1.30;;;;;;;;;;4903251;28;1422011;-74
2023/01/16 13:39:47;;;;;;;5.60;1.20;;;;;;;;;;4964065;28;20065;-68
2023/01/16 13:42:15;;;;;;;4.70;1.08;;;;;;;;;;4965860;28;20519;-72
2023/01/16 13:47:40;;;;;;;12.95;1.45;;;;;;;;;;4930474;28;20050;-75
2023/01/16 13:50:23;;;;;;;10.68;1.27;;;;;;;;;;4950719;28;20130;-71
2023/01/16 13:52:50;;;;;;;4.82;1.10;;;;;;;;;;4965986;28;20046;-74
2023/01/16 13:55:32;;;;;;;7.45;1.00;;;;;;;;;;4955501;28;20058;-68
2023/01/16 13:58:22;;;;;;;3.70;1.00;;;;;;;;;;4964231;28;20055;-67
2023/01/16 14:01:04;;;;;;;2.63;0.95;;;;;;;;;;4950314;28;20137;-79
2023/01/16 14:03:32;;;;;;;5.82;1.33;;;;;;;;;;4963495;28;20043;-76
2023/01/16 14:06:10;;;;;;;4.57;1.08;;;;;;;;;;4961646;28;20069;-69
2023/01/16 14:09:04;;;;;;;10.75;1.27;;;;;;;;;;4963109;28;20055;-75
2023/01/16 14:11:38;;;;;;;5.05;1.10;;;;;;;;;;4958678;28;20063;-67
2023/01/16 14:16:30;;;;;;;1.98;0.90;;;;;;;;;;4958523;28;20047;-78
2023/01/16 14:17:06;;;;;;;6.40;1.55;;;;;;;;;;4967429;28;20488;-71
2023/01/16 14:20:00;;;;;;;3.10;1.30;;;;;;;;;;4961759;28;20559;-75
2023/01/16 14:25:03;;;;;;;3.65;1.30;;;;;;;;;;4955937;28;20055;-76
2023/01/16 14:27:32;;;;;;;4.13;1.00;;;;;;;;;;4961869;28;20046;-68
2023/01/16 14:30:01;;;;;;;5.45;1.25;;;;;;;;;;4958189;28;20508;-72
2023/01/16 14:32:36;;;;;;;3.38;0.90;;;;;;;;;;4962437;28;20085;-73
2023/01/16 14:35:31;;;;;;;4.72;1.20;;;;;;;;;;4960462;28;20413;-73
2023/01/16 14:38:04;;;;;;;3.83;1.02;;;;;;;;;;4962824;28;21814;-70
2023/01/16 14:56:10;;;;;;;4.32;0.90;;;;;;;;;;4904460;29;20356;-68
2023/01/16 14:58:50;;;;;;;2.40;1.10;;;;;;;;;;4903206;29;20056;-70
2023/01/16 15:04:15;;;;;;;1.90;1.10;;;;;;;;;;4894850;29;20048;-71
2023/01/16 15:06:46;;;;;;;5.57;1.23;;;;;;;;;;4898504;29;20050;-75
2023/01/16 15:09:17;;;;;;;9.95;1.88;;;;;;;;;;4901904;29;20117;-69
2023/01/16 15:12:00;;;;;;;5.82;1.17;;;;;;;;;;4901773;29;20044;-74
2023/01/16 15:14:30;;;;;;;1.73;0.95;;;;;;;;;;4899632;29;20052;-74
2023/01/16 15:22:55;;;;;;;4.78;0.90;;;;;;;;;;4895516;29;20048;-70
2023/01/16 15:25:58;;;;;;;2.92;0.82;;;;;;;;;;4900102;29;20045;-68
2023/01/16 15:28:55;;;;;;;4.45;0.95;;;;;;;;;;4901205;29;20166;-73
2023/01/16 15:31:39;;;;;;;6.90;1.20;;;;;;;;;;4935479;28;20058;-73
2023/01/16 15:34:11;;;;;;;7.15;1.30;;;;;;;;;;4960729;28;20105;-73
2023/01/16 15:36:39;;;;;;;3.10;0.80;;;;;;;;;;4966272;28;20238;-78
2023/01/16 15:39:11;;;;;;;3.40;0.80;;;;;;;;;;4953912;28;20070;-75
2023/01/16 15:47:32;;;;;;;4.10;1.23;;;;;;;;;;4965685;28;20055;-76
2023/01/16 15:50:10;;;;;;;2.75;1.08;;;;;;;;;;4952941;28;20057;-79
2023/01/16 15:52:39;;;;;;;4.07;1.20;;;;;;;;;;4959872;28;20368;-70
2023/01/16 15:55:16;;;;;;;4.47;1.00;;;;;;;;;;4962038;28;20043;-72
2023/01/16 15:57:48;;;;;;;2.00;0.85;;;;;;;;;;4959215;28;20051;-68
2023/01/16 16:00:37;;;;;;;2.50;1.17;;;;;;;;;;4958588;28;20043;-73
2023/01/16 16:03:21;;;;;;;3.03;0.98;;;;;;;;;;4958309;28;21835;-71
2023/01/16 16:05:49;;;;;;;3.75;0.88;;;;;;;;;;4953783;28;20062;-70
2023/01/16 16:08:32;;;;;;;3.42;1.13;;;;;;;;;;4954362;28;20063;-75
2023/01/16 16:13:48;;;;;;;7.82;1.40;;;;;;;;;;4957854;28;20042;-68
2023/01/16 16:19:08;;;;;;;2.67;0.80;;;;;;;;;;4955319;28;20421;-73
2023/01/16 16:22:47;;;;;;;1.25;0.80;;;;;;;;;;4958081;28;20089;-72
2023/01/16 16:24:31;;;;;;;1.98;0.80;;;;;;;;;;4954240;28;20536;-72
2023/01/16 16:26:57;;;;;;;3.58;0.95;;;;;;;;;;4956110;28;20125;-74
2023/01/16 16:29:24;;;;;;;3.35;0.88;;;;;;;;;;4952345;28;20055;-80
2023/01/16 16:31:50;;;;;;;3.15;1.00;;;;;;;;;;4960161;28;20066;-78
2023/01/16 16:34:23;;;;;;;3.65;0.75;;;;;;;;;;4959096;28;20054;-77
2023/01/16 16:36:55;;;;;;;4.65;1.25;;;;;;;;;;4964138;28;20124;-76
2023/01/16 16:39:33;;;;;;;2.85;0.77;;;;;;;;;;4965956;28;20082;-71
2023/01/16 16:45:03;;;;;;;10.05;1.20;;;;;;;;;;4955534;28;20051;-68
2023/01/16 16:47:31;;;;;;;5.90;0.93;;;;;;;;;;4961342;28;20050;-70
2023/01/16 16:49:57;;;;;;;5.70;0.95;;;;;;;;;;4960287;28;20505;-74
2023/01/16 16:52:29;;;;;;;7.07;0.90;;;;;;;;;;4957234;28;20472;-71
2023/01/16 16:54:57;;;;;;;8.55;1.15;;;;;;;;;;4954352;28;20054;-72
2023/01/16 16:57:25;;;;;;;4.70;0.98;;;;;;;;;;4956159;28;20073;-70
2023/01/16 16:59:53;;;;;;;3.88;0.98;;;;;;;;;;4956779;28;20465;-73
2023/01/16 17:02:20;;;;;;;17.17;1.30;;;;;;;;;;4954246;28;20058;-73
2023/01/16 17:04:47;;;;;;;2.67;0.90;;;;;;;;;;4947151;28;20043;-76
2023/01/16 17:07:13;;;;;;;10.00;1.25;;;;;;;;;;4954367;28;20427;-74